Terminal Aerodrome Forecast
Issued by NWS

Home | Current Version | Previous Version | Text Only | Print | Product List | Glossary On
Versions: 1 2 3 4 5 6 7 8 9 10 11 12 13 14 15
473
FTUS42 KMLB 260554
TAFTIX
TAF
KTIX 260554Z 2606/2706 10005KT P6SM SCT040
     FM261300 10008KT P6SM SCT035 SCT060
      AMD NOT SKED TIL 261100=

USA.gov is the U.S. government's official web portal to all federal, state and local government web resources and services.